Time;durP1;ratioP1;P1;durP2;ratioP2;P2;SDS_P1;SDS_P2;PMS_P1;PMS_P2;Temp;Humidity;BMP_temperature;BMP_pressure;BME280_temperature;BME280_humidity;BME280_pressure;Samples;Min_cycle;Max_cycle;Signal;HPM_P1;HPM_P2
2022/08/05 00:00:09;;;;;;;1999.90;999.90;;;;;;;26.22;48.24;95171.66;5025314;28;20030;-69
2022/08/05 00:02:36;;;;;;;1999.90;999.90;;;;;;;26.08;48.49;95155.44;5010986;28;20026;-70
2022/08/05 00:05:02;;;;;;;1999.90;999.90;;;;;;;26.08;48.48;95160.88;5008721;28;20506;-70
2022/08/05 00:07:27;;;;;;;1999.90;999.90;;;;;;;26.14;48.49;95172.91;5011651;28;20022;-69
2022/08/05 00:09:52;;;;;;;1999.90;999.90;;;;;;;26.00;48.53;95148.50;5009149;28;20042;-69
2022/08/05 00:12:18;;;;;;;1999.90;999.90;;;;;;;25.97;48.75;95143.84;5011095;28;20026;-69
2022/08/05 00:14:43;;;;;;;1999.90;999.90;;;;;;;25.99;48.76;95155.13;5010186;28;20033;-69
2022/08/05 00:17:08;;;;;;;1999.90;999.90;;;;;;;25.96;49.01;95161.41;5010742;28;20518;-68
2022/08/05 00:19:34;;;;;;;1999.90;999.90;;;;;;;25.90;48.82;95148.19;5008831;28;20072;-69
2022/08/05 00:21:59;;;;;;;1999.90;999.90;;;;;;;25.89;48.94;95140.41;5011265;28;20467;-69
2022/08/05 00:24:25;;;;;;;1999.90;999.90;;;;;;;25.93;49.04;95150.09;5010178;28;20036;-69
2022/08/05 00:26:51;;;;;;;1999.90;999.90;;;;;;;25.95;49.34;95151.66;5009703;28;20493;-69
2022/08/05 00:29:16;;;;;;;1999.90;999.90;;;;;;;25.87;49.41;95145.50;5006171;28;20034;-69
2022/08/05 00:31:42;;;;;;;1999.90;999.90;;;;;;;25.83;49.48;95131.13;5002670;28;20030;-70
2022/08/05 00:34:07;;;;;;;1999.90;999.90;;;;;;;25.70;49.28;95119.94;5009241;28;20108;-69
2022/08/05 00:36:32;;;;;;;1999.90;999.90;;;;;;;25.82;49.32;95157.59;5010296;28;21606;-69
2022/08/05 00:38:58;;;;;;;1999.90;999.90;;;;;;;25.76;49.38;95139.38;5025675;28;20029;-69
2022/08/05 00:41:27;;;;;;;1999.90;999.90;;;;;;;25.81;49.87;95150.59;5010110;28;20117;-69
2022/08/05 00:43:53;;;;;;;1999.90;999.90;;;;;;;25.79;49.89;95152.94;5009827;28;20103;-69
2022/08/05 00:46:18;;;;;;;1999.90;999.90;;;;;;;25.73;50.08;95148.31;5008780;28;20479;-69
2022/08/05 00:48:44;;;;;;;1999.90;999.90;;;;;;;25.74;50.04;95150.63;5024716;28;20049;-69
2022/08/05 00:51:09;;;;;;;1999.90;999.90;;;;;;;25.45;49.98;95103.00;5026020;22;20084;-75
2022/08/05 00:53:34;;;;;;;1999.90;999.90;;;;;;;25.32;49.96;95095.28;5027807;28;20109;-76
2022/08/05 00:56:00;;;;;;;1999.90;999.90;;;;;;;25.28;50.03;95097.25;5030043;28;20025;-76
2022/08/05 00:58:25;;;;;;;1999.90;999.90;;;;;;;25.38;50.38;95109.25;5017728;28;20025;-74
2022/08/05 01:00:50;;;;;;;1999.90;999.90;;;;;;;25.47;50.33;95111.53;5012929;28;20040;-75
2022/08/05 01:03:16;;;;;;;1999.90;999.90;;;;;;;25.54;50.38;95130.53;5030319;28;20068;-74
2022/08/05 01:05:41;;;;;;;1999.90;999.90;;;;;;;25.12;50.58;95083.38;5009526;28;20038;-75
2022/08/05 01:08:07;;;;;;;1999.90;999.90;;;;;;;25.33;50.72;95124.06;4993015;28;20565;-75
2022/08/05 01:10:58;;;;;;;1999.90;999.90;;;;;;;25.53;50.75;95134.44;5005101;28;20033;-76
2022/08/05 01:13:32;;;;;;;1999.90;999.90;;;;;;;25.13;50.85;95087.63;4989327;28;20034;-76
2022/08/05 01:16:01;;;;;;;1999.90;999.90;;;;;;;25.00;50.90;95072.94;4998437;28;20096;-75
2022/08/05 01:18:41;;;;;;;1999.90;999.90;;;;;;;25.21;51.07;95121.81;5012577;28;20025;-76
2022/08/05 01:21:24;;;;;;;1999.90;999.90;;;;;;;25.07;51.44;95100.91;4995021;28;20025;-71
2022/08/05 01:24:01;;;;;;;1999.90;999.90;;;;;;;25.33;51.75;95151.28;4992346;28;20026;-73
2022/08/05 01:26:57;;;;;;;1999.90;999.90;;;;;;;25.30;51.54;95154.84;5010564;28;20026;-73
2022/08/05 01:29:49;;;;;;;1999.90;999.90;;;;;;;25.25;51.68;95136.19;5026178;28;20026;-73
2022/08/05 01:32:19;;;;;;;1999.90;999.90;;;;;;;25.30;51.75;95143.16;5024948;28;20041;-73
2022/08/05 01:34:49;;;;;;;1999.90;999.90;;;;;;;25.32;51.73;95144.31;5023194;28;20030;-73
2022/08/05 01:37:18;;;;;;;1999.90;999.90;;;;;;;25.31;51.76;95129.16;5010265;28;20124;-73
2022/08/05 01:39:46;;;;;;;1999.90;999.90;;;;;;;25.37;51.61;95134.94;4994832;28;20021;-73
2022/08/05 01:42:15;;;;;;;1999.90;999.90;;;;;;;25.33;51.54;95132.22;5011456;28;20044;-73
2022/08/05 01:44:42;;;;;;;1999.90;999.90;;;;;;;25.21;51.68;95116.38;5003687;28;20026;-73
2022/08/05 01:47:10;;;;;;;1999.90;999.90;;;;;;;25.34;51.70;95130.31;5007342;28;20033;-72
2022/08/05 01:49:38;;;;;;;1999.90;999.90;;;;;;;25.37;51.68;95140.38;4996292;28;20030;-73
2022/08/05 01:52:05;;;;;;;1999.90;999.90;;;;;;;25.29;51.65;95136.94;5024091;28;20141;-72
2022/08/05 01:54:38;;;;;;;1999.90;999.90;;;;;;;25.30;51.75;95146.66;5012654;28;20025;-73
2022/08/05 01:57:05;;;;;;;1999.90;999.90;;;;;;;25.26;51.94;95143.19;5012008;28;20025;-73
2022/08/05 01:59:33;;;;;;;1999.90;999.90;;;;;;;25.14;51.88;95130.81;4991138;28;20053;-73
2022/08/05 02:02:00;;;;;;;1999.90;999.90;;;;;;;25.18;52.38;95136.22;5005878;28;20482;-73
2022/08/05 02:04:28;;;;;;;1999.90;999.90;;;;;;;25.10;52.31;95127.34;5029367;28;20084;-72
2022/08/05 02:06:55;;;;;;;1999.90;999.90;;;;;;;25.20;52.15;95142.06;4993166;28;20117;-74
2022/08/05 02:09:20;;;;;;;1999.90;999.90;;;;;;;25.19;52.36;95140.50;5009033;28;20026;-72
2022/08/05 02:12:22;;;;;;;1999.90;999.90;;;;;;;25.12;52.46;95129.66;4992035;28;20073;-73
2022/08/05 02:14:52;;;;;;;;;;;;;;;25.15;52.26;95142.47;5011444;28;20069;-73
2022/08/05 02:17:39;;;;;;;1999.90;999.90;;;;;;;25.11;52.12;95139.75;4992874;28;20011;-73
2022/08/05 02:20:13;;;;;;;1999.90;999.90;;;;;;;25.08;52.48;95139.78;5014651;28;20068;-72
2022/08/05 02:22:42;;;;;;;1999.90;999.90;;;;;;;25.05;52.46;95138.59;5009820;28;20030;-73
2022/08/05 02:25:13;;;;;;;1999.90;999.90;;;;;;;25.08;52.63;95137.84;5015355;28;20033;-73
2022/08/05 02:27:40;;;;;;;1999.90;999.90;;;;;;;24.95;52.54;95134.00;5009628;28;20087;-73
2022/08/05 02:30:08;;;;;;;1999.90;999.90;;;;;;;24.96;52.63;95132.03;4997760;28;20623;-73
2022/08/05 02:32:36;;;;;;;1999.90;999.90;;;;;;;24.94;53.08;95134.41;5028100;28;20045;-73
2022/08/05 02:35:05;;;;;;;1999.90;999.90;;;;;;;24.89;52.80;95121.97;5029052;28;20537;-73
2022/08/05 02:37:32;;;;;;;1999.90;999.90;;;;;;;24.87;52.78;95133.25;4992548;28;20051;-73
2022/08/05 02:39:59;;;;;;;1999.90;999.90;;;;;;;24.92;52.87;95134.78;5014877;28;20096;-73
2022/08/05 02:42:25;;;;;;;1999.90;999.90;;;;;;;24.92;52.89;95134.00;5031354;28;20052;-73
2022/08/05 02:44:51;;;;;;;1999.90;999.90;;;;;;;24.95;52.67;95138.66;5005326;28;20053;-73
2022/08/05 02:47:17;;;;;;;1999.90;999.90;;;;;;;24.87;52.82;95127.03;5012621;28;20053;-73
2022/08/05 02:49:44;;;;;;;1999.90;999.90;;;;;;;24.82;52.84;95128.22;4994852;28;20041;-73
2022/08/05 02:52:14;;;;;;;1999.90;999.90;;;;;;;24.69;52.96;95110.81;5017645;28;20038;-73
2022/08/05 02:54:41;;;;;;;1999.90;999.90;;;;;;;24.79;53.07;95130.97;5012264;28;20667;-73
2022/08/05 02:57:10;;;;;;;1999.90;999.90;;;;;;;24.77;53.35;95133.28;4992955;28;20052;-72
2022/08/05 02:59:36;;;;;;;1999.90;999.90;;;;;;;24.74;53.20;95124.00;4998219;28;20022;-72
2022/08/05 03:02:03;;;;;;;1999.90;999.90;;;;;;;24.70;53.44;95115.06;5027315;28;20032;-74
2022/08/05 03:04:29;;;;;;;1999.90;999.90;;;;;;;24.62;53.29;95113.56;4994900;28;20076;-72
2022/08/05 03:06:56;;;;;;;1999.90;999.90;;;;;;;24.68;53.28;95125.56;5011919;28;20438;-72
2022/08/05 03:09:22;;;;;;;1999.90;999.90;;;;;;;24.63;53.74;95126.75;5012710;28;20534;-72
2022/08/05 03:11:49;;;;;;;1999.90;999.90;;;;;;;24.66;53.48;95124.41;5029706;28;20125;-73
2022/08/05 03:14:15;;;;;;;1999.90;999.90;;;;;;;24.72;53.46;95123.63;5013973;28;20449;-73
2022/08/05 03:16:40;;;;;;;1999.90;999.90;;;;;;;24.65;53.86;95126.34;5011716;28;20040;-73
2022/08/05 03:19:06;;;;;;;1999.90;999.90;;;;;;;24.59;53.63;95108.91;4995285;28;20030;-73
2022/08/05 03:21:32;;;;;;;1999.90;999.90;;;;;;;24.55;53.53;95108.13;4990531;28;20080;-73
2022/08/05 03:23:58;;;;;;;1999.90;999.90;;;;;;;24.63;53.79;95117.81;4975411;28;20046;-73
2022/08/05 03:26:23;;;;;;;1999.90;999.90;;;;;;;24.58;53.62;95113.56;5004326;28;20026;-72
2022/08/05 03:28:49;;;;;;;1999.90;999.90;;;;;;;24.60;53.45;95121.31;4995079;28;20064;-74
2022/08/05 03:31:14;;;;;;;1999.90;999.90;;;;;;;24.55;53.81;95108.13;5010355;28;20373;-73
2022/08/05 03:33:40;;;;;;;1999.90;999.90;;;;;;;24.64;53.71;95127.53;4994233;28;20729;-73
2022/08/05 03:36:06;;;;;;;1999.90;999.90;;;;;;;24.58;53.70;95119.00;5011264;28;20026;-73
2022/08/05 03:38:32;;;;;;;1999.90;999.90;;;;;;;24.61;53.56;95111.97;5010026;28;20094;-73
2022/08/05 03:40:57;;;;;;;1999.90;999.90;;;;;;;24.61;53.52;95111.97;5001812;28;20056;-72
2022/08/05 03:43:25;;;;;;;1999.90;999.90;;;;;;;24.64;53.32;95116.66;5012106;28;20029;-73
2022/08/05 03:45:53;;;;;;;1999.90;999.90;;;;;;;24.65;53.73;95126.34;5003129;28;20025;-72
2022/08/05 03:48:19;;;;;;;1999.90;999.90;;;;;;;24.61;53.21;95114.72;5002849;28;20386;-72
2022/08/05 03:50:54;;;;;;;1999.90;999.90;;;;;;;24.61;53.45;95114.72;4993670;28;20029;-73
2022/08/05 03:53:40;;;;;;;1999.90;999.90;;;;;;;24.67;53.29;95115.88;5002241;28;20120;-73
2022/08/05 03:56:35;;;;;;;1999.90;999.90;;;;;;;24.66;53.54;95118.97;5011989;28;20466;-73
2022/08/05 03:59:05;;;;;;;1999.90;999.90;;;;;;;24.65;53.45;95110.03;5029511;28;20037;-73
2022/08/05 04:01:33;;;;;;;1999.90;999.90;;;;;;;24.72;53.18;95117.38;5015262;28;20057;-73
2022/08/05 04:04:01;;;;;;;1999.90;999.90;;;;;;;24.72;53.09;95118.19;4994117;28;20018;-73
2022/08/05 04:06:27;;;;;;;1999.90;999.90;;;;;;;24.80;53.35;95121.63;5010988;28;20034;-73
2022/08/05 04:08:53;;;;;;;1999.90;999.90;;;;;;;24.85;52.81;95118.50;5010725;28;20052;-73
2022/08/05 04:11:19;;;;;;;1999.90;999.90;;;;;;;24.91;52.73;95119.63;5009062;28;20041;-72
2022/08/05 04:13:44;;;;;;;1999.90;999.90;;;;;;;25.08;52.39;95126.16;5013465;28;20105;-72
2022/08/05 04:16:12;;;;;;;1999.90;999.90;;;;;;;25.13;51.97;95126.53;5017257;28;20069;-73
2022/08/05 04:18:38;;;;;;;1999.90;999.90;;;;;;;25.22;51.87;95125.31;5011473;28;20061;-73
2022/08/05 04:21:05;;;;;;;1999.90;999.90;;;;;;;25.30;51.72;95140.44;5023163;28;20397;-73
2022/08/05 04:23:31;;;;;;;1999.90;999.90;;;;;;;25.03;52.11;95149.13;5000359;28;20021;-68
2022/08/05 04:25:57;;;;;;;1999.90;999.90;;;;;;;24.90;51.84;95142.56;5021973;28;20079;-67
2022/08/05 04:28:22;;;;;;;1999.90;999.90;;;;;;;24.80;52.30;95179.53;5032650;28;20037;-70
2022/08/05 04:30:48;;;;;;;1999.90;999.90;;;;;;;25.19;51.69;95178.63;5009735;28;20068;-72
2022/08/05 04:33:14;;;;;;;1999.90;999.90;;;;;;;25.34;52.20;95185.53;5020766;28;20049;-71
2022/08/05 04:35:41;;;;;;;1999.90;999.90;;;;;;;25.05;53.56;95194.97;5000205;28;20092;-69
2022/08/05 04:38:06;;;;;;;1999.90;999.90;;;;;;;25.52;52.77;95179.19;5021623;28;20029;-70
2022/08/05 04:40:33;;;;;;;1999.90;999.90;;;;;;;26.01;51.28;95182.75;5004701;28;20034;-70
2022/08/05 04:42:58;;;;;;;1999.90;999.90;;;;;;;26.37;50.82;95175.81;4990050;28;20662;-70
2022/08/05 04:45:24;;;;;;;1999.90;999.90;;;;;;;26.79;50.04;95183.97;4993418;28;20072;-70
2022/08/05 04:47:50;;;;;;;1999.90;999.90;;;;;;;27.02;49.27;95178.59;5009980;28;20029;-70
2022/08/05 04:50:16;;;;;;;1999.90;999.90;;;;;;;27.36;48.71;95183.28;5006232;28;20040;-70
2022/08/05 04:52:41;;;;;;;1999.90;999.90;;;;;;;27.52;47.76;95180.69;5007676;28;20030;-70
2022/08/05 04:55:07;;;;;;;1999.90;999.90;;;;;;;27.77;47.02;95191.28;4992744;28;20037;-71
2022/08/05 04:57:32;;;;;;;1999.90;999.90;;;;;;;27.96;46.78;95181.63;5012910;28;20067;-69
2022/08/05 04:59:58;;;;;;;1999.90;999.90;;;;;;;28.13;45.50;95188.00;5012687;28;20052;-70
2022/08/05 05:02:23;;;;;;;1999.90;999.90;;;;;;;28.30;45.05;95184.16;4995093;28;20117;-70
2022/08/05 05:04:48;;;;;;;1999.90;999.90;;;;;;;28.41;44.59;95171.13;4992706;28;20398;-70
2022/08/05 05:07:15;;;;;;;1999.90;999.90;;;;;;;28.45;43.72;95182.75;5025416;28;20105;-70
2022/08/05 05:09:40;;;;;;;1999.90;999.90;;;;;;;28.46;42.50;95187.06;5018066;28;20025;-69
2022/08/05 05:12:06;;;;;;;1999.90;999.90;;;;;;;28.51;41.89;95185.81;5030195;28;20017;-69
2022/08/05 05:14:31;;;;;;;1999.90;999.90;;;;;;;28.50;41.94;95192.44;5010605;28;20013;-71
2022/08/05 05:16:58;;;;;;;1999.90;999.90;;;;;;;28.68;41.84;95194.88;5003818;28;20030;-70
2022/08/05 05:19:23;;;;;;;1999.90;999.90;;;;;;;28.92;41.39;95187.34;5012181;28;20033;-70
2022/08/05 05:21:48;;;;;;;1999.90;999.90;;;;;;;28.38;41.90;95193.06;5017006;28;20048;-70
2022/08/05 05:24:14;;;;;;;1999.90;999.90;;;;;;;28.46;41.97;95194.50;4991465;28;20109;-69
2022/08/05 05:26:39;;;;;;;1999.90;999.90;;;;;;;28.58;42.00;95191.13;5012602;28;20470;-69
2022/08/05 05:29:04;;;;;;;1999.90;999.90;;;;;;;28.92;41.38;95195.56;5030085;28;20068;-69
2022/08/05 05:31:30;;;;;;;1999.90;999.90;;;;;;;28.92;41.26;95201.03;5015465;28;20018;-70
2022/08/05 05:33:55;;;;;;;1999.90;999.90;;;;;;;28.73;41.32;95178.72;5010994;28;20034;-69
2022/08/05 05:36:20;;;;;;;1999.90;999.90;;;;;;;29.14;40.60;95196.72;5010889;28;20522;-70
2022/08/05 05:38:45;;;;;;;1999.90;999.90;;;;;;;28.99;40.29;95196.22;5008053;28;20014;-70
2022/08/05 05:41:11;;;;;;;1999.90;999.90;;;;;;;29.11;40.20;95208.50;5009858;28;20098;-69
2022/08/05 05:43:36;;;;;;;1999.90;999.90;;;;;;;29.38;40.25;95213.84;4992285;28;20022;-70
2022/08/05 05:46:01;;;;;;;1999.90;999.90;;;;;;;29.66;39.69;95211.69;5003370;28;20594;-69
2022/08/05 05:48:27;;;;;;;1999.90;999.90;;;;;;;29.24;39.40;95205.91;5007885;28;20023;-70
2022/08/05 05:50:52;;;;;;;1999.90;999.90;;;;;;;29.84;39.07;95209.31;5009855;28;20026;-69
2022/08/05 05:53:17;;;;;;;1999.90;999.90;;;;;;;30.06;38.50;95203.31;4990453;28;20498;-69
2022/08/05 05:55:44;;;;;;;1999.90;999.90;;;;;;;30.20;38.20;95211.22;5011963;28;20030;-70
2022/08/05 05:58:09;;;;;;;1999.90;999.90;;;;;;;29.73;39.00;95206.81;5029763;28;20044;-70
2022/08/05 06:00:34;;;;;;;1999.90;999.90;;;;;;;29.88;38.75;95209.22;4991926;28;20032;-70
2022/08/05 06:03:02;;;;;;;1999.90;999.90;;;;;;;28.99;40.20;95212.66;4991245;28;20775;-72
2022/08/05 06:05:27;;;;;;;1999.90;999.90;;;;;;;28.95;40.59;95211.94;5009181;28;20793;-72
2022/08/05 06:07:52;;;;;;;1999.90;999.90;;;;;;;29.09;40.49;95218.34;4991451;28;20030;-72
2022/08/05 06:10:18;;;;;;;1999.90;999.90;;;;;;;28.62;40.48;95213.75;5023408;28;20034;-72
2022/08/05 06:12:43;;;;;;;1999.90;999.90;;;;;;;28.74;40.67;95215.06;5030892;28;20025;-72
2022/08/05 06:15:09;;;;;;;1999.90;999.90;;;;;;;28.69;40.63;95210.09;5030111;28;20057;-73
2022/08/05 06:17:35;;;;;;;1999.90;999.90;;;;;;;28.80;40.54;95213.38;5013020;28;20034;-73
2022/08/05 06:20:02;;;;;;;1999.90;999.90;;;;;;;28.92;40.21;95209.25;5003599;28;20778;-73
2022/08/05 06:22:33;;;;;;;1999.90;999.90;;;;;;;28.68;40.94;95211.28;5013375;28;20500;-73
2022/08/05 06:24:59;;;;;;;1999.90;999.90;;;;;;;29.03;40.52;95209.09;5011891;28;20453;-73
2022/08/05 06:27:25;;;;;;;1999.90;999.90;;;;;;;28.91;40.43;95211.22;4996129;28;20108;-73
2022/08/05 06:29:50;;;;;;;1999.90;999.90;;;;;;;28.66;40.39;95213.66;5020636;28;20457;-73
2022/08/05 06:32:16;;;;;;;1999.90;999.90;;;;;;;28.92;40.37;95214.72;5020397;28;20037;-72
2022/08/05 06:34:41;;;;;;;1999.90;999.90;;;;;;;29.00;40.21;95211.47;5012606;28;20068;-72
2022/08/05 06:37:07;;;;;;;1999.90;999.90;;;;;;;29.38;39.94;95213.84;5013471;28;20434;-73
2022/08/05 06:39:32;;;;;;;1999.90;999.90;;;;;;;28.73;40.83;95216.28;5011983;28;20378;-73
2022/08/05 06:42:02;;;;;;;1999.90;999.90;;;;;;;28.81;40.47;95225.88;5011760;28;20033;-74
2022/08/05 06:44:28;;;;;;;1999.90;999.90;;;;;;;29.21;39.72;95209.47;5001407;28;20389;-71
2022/08/05 06:46:55;;;;;;;1999.90;999.90;;;;;;;28.62;40.91;95246.56;4997360;28;20124;-71
2022/08/05 06:49:20;;;;;;;1999.90;999.90;;;;;;;29.06;40.35;95235.63;5012330;28;20045;-70
2022/08/05 06:51:46;;;;;;;1999.90;999.90;;;;;;;29.00;40.67;95232.59;5012907;28;20038;-67
2022/08/05 06:54:11;;;;;;;1999.90;999.90;;;;;;;29.95;38.52;95218.06;5011726;28;20050;-67
2022/08/05 06:56:37;;;;;;;1999.90;999.90;;;;;;;30.44;37.66;95225.53;5013057;28;20022;-68
2022/08/05 06:59:03;;;;;;;1999.90;999.90;;;;;;;29.86;38.26;95223.38;5013004;28;20450;-69
2022/08/05 07:01:29;;;;;;;1999.90;999.90;;;;;;;29.35;39.05;95233.84;5012096;28;20065;-68
2022/08/05 07:03:54;;;;;;;1999.90;999.90;;;;;;;29.52;39.24;95226.44;5012186;28;20109;-68
2022/08/05 07:06:21;;;;;;;1999.90;999.90;;;;;;;30.11;37.95;95222.00;5001661;28;20030;-71
2022/08/05 07:08:46;;;;;;;1999.90;999.90;;;;;;;30.20;37.85;95233.97;4994373;28;20058;-70
2022/08/05 07:11:12;;;;;;;1999.90;999.90;;;;;;;30.18;37.44;95219.13;4995445;28;20058;-70
2022/08/05 07:19:05;;;;;;;1999.90;999.90;;;;;;;29.48;39.28;95251.19;5008178;28;20087;-72
2022/08/05 07:21:31;;;;;;;1999.90;999.90;;;;;;;30.15;37.61;95252.88;5010899;28;20026;-73
2022/08/05 07:23:56;;;;;;;1999.90;999.90;;;;;;;29.25;39.39;95264.97;4995899;28;20664;-68
2022/08/05 07:26:22;;;;;;;1999.90;999.90;;;;;;;28.83;40.60;95261.84;5004090;28;20050;-67
2022/08/05 07:28:49;;;;;;;1999.90;999.90;;;;;;;28.93;40.47;95280.03;5001820;28;20493;-68
2022/08/05 07:31:15;;;;;;;1999.90;999.90;;;;;;;28.57;41.22;95292.81;5018891;28;20109;-70
2022/08/05 07:33:40;;;;;;;1999.90;999.90;;;;;;;28.75;41.43;95287.78;5011867;28;20105;-68
2022/08/05 07:36:06;;;;;;;1999.90;999.90;;;;;;;28.81;41.21;95297.06;5011282;28;20442;-69
2022/08/05 07:38:32;;;;;;;1999.90;999.90;;;;;;;29.90;39.43;95289.88;5010465;28;20497;-70
2022/08/05 07:40:58;;;;;;;1999.90;999.90;;;;;;;29.50;40.05;95298.13;4994055;28;20029;-72
2022/08/05 07:43:23;;;;;;;1999.90;999.90;;;;;;;29.67;39.67;95285.28;4994486;28;20493;-70
2022/08/05 07:45:48;;;;;;;1999.90;999.90;;;;;;;29.04;40.59;95301.78;5012088;28;20030;-69
2022/08/05 07:48:14;;;;;;;1999.90;999.90;;;;;;;29.06;40.63;95312.31;5002357;28;20113;-68
2022/08/05 07:50:39;;;;;;;1999.90;999.90;;;;;;;28.75;41.12;95307.72;5012487;28;20101;-72
2022/08/05 07:53:04;;;;;;;1999.90;999.90;;;;;;;28.73;41.54;95323.03;5010693;28;20489;-70
2022/08/05 07:55:30;;;;;;;1999.90;999.90;;;;;;;28.13;41.80;95325.50;5003617;28;20030;-71
2022/08/05 07:57:56;;;;;;;1999.90;999.90;;;;;;;28.11;41.71;95341.56;5010788;28;20022;-71
2022/08/05 08:00:21;;;;;;;1999.90;999.90;;;;;;;27.97;41.54;95339.00;5007310;28;20052;-73
2022/08/05 08:02:47;;;;;;;1999.90;999.90;;;;;;;28.36;39.95;95315.81;5011692;28;20494;-72
2022/08/05 08:05:12;;;;;;;1999.90;999.90;;;;;;;27.97;41.36;95345.25;5011306;28;20033;-74
2022/08/05 08:07:37;;;;;;;1999.90;999.90;;;;;;;27.71;42.04;95349.50;5011698;28;20057;-71
2022/08/05 08:10:03;;;;;;;1999.90;999.90;;;;;;;27.65;42.14;95351.09;5010332;28;20376;-72
2022/08/05 08:12:29;;;;;;;1999.90;999.90;;;;;;;28.19;40.92;95359.38;5011921;28;20030;-72
2022/08/05 08:14:54;;;;;;;1999.90;999.90;;;;;;;28.07;40.55;95346.28;4996551;28;20018;-71
2022/08/05 08:17:19;;;;;;;1999.90;999.90;;;;;;;28.11;40.34;95338.03;4993476;28;20085;-72
2022/08/05 08:19:45;;;;;;;1999.90;999.90;;;;;;;27.46;41.25;95365.38;5011866;28;20088;-72
2022/08/05 08:22:10;;;;;;;1999.90;999.90;;;;;;;28.05;40.33;95358.81;5011526;28;20029;-72
2022/08/05 08:24:36;;;;;;;1999.90;999.90;;;;;;;27.68;40.58;95374.09;5002084;28;20486;-71
2022/08/05 08:27:03;;;;;;;1999.90;999.90;;;;;;;27.71;40.88;95365.13;4994220;28;20041;-73
2022/08/05 08:29:28;;;;;;;1999.90;999.90;;;;;;;27.85;41.10;95364.94;4993779;28;20034;-73
2022/08/05 08:31:55;;;;;;;1999.90;999.90;;;;;;;27.89;41.18;95382.06;5011120;28;20394;-71
2022/08/05 08:34:24;;;;;;;1999.90;999.90;;;;;;;27.64;41.41;95387.81;5006120;28;20036;-71
2022/08/05 08:36:50;;;;;;;1999.90;999.90;;;;;;;27.73;41.62;95390.06;4992999;28;20386;-71
2022/08/05 08:39:19;;;;;;;1999.90;999.90;;;;;;;27.62;41.57;95395.63;5007484;28;20034;-70
2022/08/05 08:41:47;;;;;;;1999.90;999.90;;;;;;;27.46;41.89;95407.13;4996045;28;20156;-71
2022/08/05 08:44:18;;;;;;;1999.90;999.90;;;;;;;27.85;40.91;95389.56;4993702;28;20045;-71
2022/08/05 08:46:46;;;;;;;1999.90;999.90;;;;;;;27.37;41.87;95409.56;5009153;28;20022;-71
2022/08/05 08:49:13;;;;;;;1999.90;999.90;;;;;;;27.25;42.77;95417.50;5008455;28;20030;-71
2022/08/05 08:51:40;;;;;;;1999.90;999.90;;;;;;;27.56;42.23;95419.13;5009776;28;20482;-72
2022/08/05 08:54:06;;;;;;;1999.90;999.90;;;;;;;27.30;42.33;95417.84;5009177;28;20482;-72
2022/08/05 08:56:32;;;;;;;1999.90;999.90;;;;;;;28.16;40.61;95409.47;5005774;28;20033;-72
2022/08/05 08:58:59;;;;;;;1999.90;999.90;;;;;;;27.89;41.17;95417.59;4992513;28;20429;-71
2022/08/05 09:01:24;;;;;;;1999.90;999.90;;;;;;;28.65;39.74;95396.25;5011046;28;20042;-71
2022/08/05 09:03:52;;;;;;;1999.90;999.90;;;;;;;28.18;40.81;95417.25;4999850;28;20034;-71
2022/08/05 09:06:18;;;;;;;1999.90;999.90;;;;;;;28.18;41.29;95418.00;5008511;28;20133;-71
2022/08/05 09:08:43;;;;;;;1999.90;999.90;;;;;;;28.28;41.01;95419.06;4992809;28;20499;-72
2022/08/05 09:11:09;;;;;;;1999.90;999.90;;;;;;;28.82;39.93;95413.63;5010468;28;20033;-72
2022/08/05 09:13:35;;;;;;;1999.90;999.90;;;;;;;28.50;40.46;95419.56;5010639;28;20045;-72
2022/08/05 09:16:01;;;;;;;1999.90;999.90;;;;;;;29.29;39.38;95424.59;5010260;28;20037;-70
2022/08/05 09:18:27;;;;;;;1999.90;999.90;;;;;;;29.00;39.91;95425.06;4992720;28;20033;-71
2022/08/05 09:20:56;;;;;;;1999.90;999.90;;;;;;;29.00;39.45;95440.72;5009954;28;20480;-72
2022/08/05 09:23:22;;;;;;;1999.90;999.90;;;;;;;29.04;39.53;95418.75;4992812;28;20042;-72
2022/08/05 09:25:50;;;;;;;1999.90;999.90;;;;;;;28.99;39.48;95434.47;5009710;28;20030;-71
2022/08/05 09:28:23;;;;;;;1999.90;999.90;;;;;;;28.80;39.93;95437.88;5010697;28;20033;-71
2022/08/05 09:31:05;;;;;;;1999.90;999.90;;;;;;;28.97;39.64;95436.88;4992872;28;20038;-71
2022/08/05 09:33:30;;;;;;;1999.90;999.90;;;;;;;29.78;37.93;95433.88;5001631;28;20529;-72
2022/08/05 09:36:01;;;;;;;1999.90;999.90;;;;;;;29.91;37.60;95441.47;4988560;28;20026;-71
2022/08/05 09:38:27;;;;;;;1999.90;999.90;;;;;;;30.04;37.00;95425.91;4992017;28;20465;-71
2022/08/05 09:40:55;;;;;;;1999.90;999.90;;;;;;;30.13;37.59;95425.38;5004895;28;20040;-71
2022/08/05 09:43:34;;;;;;;1999.90;999.90;;;;;;;29.20;37.95;95443.53;4990002;28;20033;-72
2022/08/05 09:46:00;;;;;;;1999.90;999.90;;;;;;;29.32;38.50;95442.91;5007936;28;20021;-75
2022/08/05 09:48:31;;;;;;;1999.90;999.90;;;;;;;29.43;38.52;95446.25;5004483;28;20045;-73
2022/08/05 09:51:00;;;;;;;1999.90;999.90;;;;;;;29.16;38.18;95424.41;4991511;28;20022;-73
2022/08/05 09:53:26;;;;;;;1999.90;999.90;;;;;;;29.12;38.58;95444.81;4991836;28;20057;-70
2022/08/05 09:55:54;;;;;;;1999.90;999.90;;;;;;;29.68;37.85;95445.03;5008789;28;20026;-74
2022/08/05 09:58:19;;;;;;;1999.90;999.90;;;;;;;29.29;38.58;95430.06;5009757;28;20100;-76
2022/08/05 10:00:54;;;;;;;1999.90;999.90;;;;;;;29.39;38.64;95451.03;5009635;28;20117;-76
2022/08/05 10:03:20;;;;;;;1999.90;999.90;;;;;;;28.97;38.69;95434.13;5008448;28;20173;-76
2022/08/05 10:05:45;;;;;;;1999.90;999.90;;;;;;;29.92;37.19;95440.28;5010466;28;20058;-74
2022/08/05 10:08:11;;;;;;;1999.90;999.90;;;;;;;30.25;36.65;95439.22;4988535;28;20501;-74
2022/08/05 10:10:47;;;;;;;1999.90;999.90;;;;;;;30.21;36.70;95427.56;5002187;28;20471;-75
2022/08/05 10:13:29;;;;;;;1999.90;999.90;;;;;;;29.40;38.11;95446.31;5009440;28;20018;-76
2022/08/05 10:15:57;;;;;;;1999.90;999.90;;;;;;;30.25;37.06;95443.91;5010498;28;20055;-76
2022/08/05 10:18:24;;;;;;;1999.90;999.90;;;;;;;30.41;36.36;95456.94;5009085;28;20030;-75
2022/08/05 10:20:52;;;;;;;1999.90;999.90;;;;;;;29.35;38.04;95449.53;4992197;28;20041;-76
2022/08/05 10:23:19;;;;;;;1999.90;999.90;;;;;;;29.58;37.55;95454.22;4992330;28;20034;-75
2022/08/05 10:25:45;;;;;;;1999.90;999.90;;;;;;;29.56;38.40;95456.63;5009658;28;20022;-76
2022/08/05 10:28:10;;;;;;;1999.90;999.90;;;;;;;29.40;37.41;95449.84;4992429;28;20100;-76
2022/08/05 10:30:37;;;;;;;1999.90;999.90;;;;;;;29.48;37.81;95447.72;5010308;28;20034;-77
2022/08/05 10:33:04;;;;;;;1999.90;999.90;;;;;;;29.83;37.04;95451.78;5010247;28;20116;-77
2022/08/05 10:35:31;;;;;;;1999.90;999.90;;;;;;;30.32;36.34;95464.97;5002668;28;20389;-77
2022/08/05 10:37:59;;;;;;;1999.90;999.90;;;;;;;30.80;35.43;95454.09;5007350;28;20057;-78
2022/08/05 10:40:27;;;;;;;1999.90;999.90;;;;;;;30.10;36.70;95459.09;4991860;28;20022;-75
2022/08/05 10:42:58;;;;;;;1999.90;999.90;;;;;;;30.25;35.85;95455.69;4993076;28;20111;-78
2022/08/05 10:45:26;;;;;;;1999.90;999.90;;;;;;;30.23;35.68;95435.34;5010433;28;20113;-79
2022/08/05 10:47:52;;;;;;;1999.90;999.90;;;;;;;30.33;35.65;95447.31;5011001;28;20029;-79
2022/08/05 10:50:18;;;;;;;1999.90;999.90;;;;;;;29.53;36.79;95436.28;5009871;28;20107;-79
2022/08/05 10:52:58;;;;;;;1999.90;999.90;;;;;;;30.18;35.56;95449.56;4990094;28;20475;-80
2022/08/05 10:55:24;;;;;;;1999.90;999.90;;;;;;;30.38;35.53;95444.06;5008916;28;20026;-79
2022/08/05 10:58:09;;;;;;;1999.90;999.90;;;;;;;30.91;34.45;95442.84;5009324;28;20103;-79
2022/08/05 11:00:34;;;;;;;1999.90;999.90;;;;;;;31.50;33.46;95397.06;5013836;28;20026;-80